Latest Weather Observations for Moruya Airport

IDN60801

Issued at 12:32 pm EST Monday 3 August 2015 (issued every 30 minutes, with the page automatically refreshed every 10 minutes)

About weather observations | Map of weather stations | Latest weather observations for NSW | Other Formats
Station Details ID: 069148 Name: MORUYA AIRPORT AWS Lat: -35.90 Lon: 150.14 Height: 4.0 m
Data from the previous 72 hours. | See also: Recent months at Moruya Airport
Date/Time
EST
Temp
°C
App
Temp
°C
Dew
Point
Rel
Hum
%
Delta-T
°C
Wind Press
QNH
hPa
Press
MSL
hPa
Rain
since 9 am
mm
Dir
 
Spd
km/h
Gust
km/h
Spd
kts
Gust
kts
03/12:30pm 17.2 12.9 7.0 51 5.1 E 19 26 10 14 1010.5 1010.5 0.0
03/12:00pm 16.8 13.9 4.5 44 5.8 SSE 9 19 5 10 1010.7 1010.7 0.0
03/11:30am 17.3 14.1 2.9 38 6.6 NNW 9 15 5 8 1010.7 1010.7 0.0
03/11:00am 17.0 13.0 2.6 38 6.5 N 13 20 7 11 1010.5 1010.5 0.0
03/10:30am 16.5 13.3 2.9 40 6.2 NW 9 17 5 9 1010.7 1010.7 0.0
03/10:00am 16.1 13.3 3.2 42 5.9 NNE 7 11 4 6 1010.7 1010.7 0.0
03/09:30am 15.1 11.7 3.9 47 5.1 NNW 11 19 6 10 1010.7 1010.7 0.0
03/09:00am 14.6 12.5 4.0 49 4.9 NNW 4 7 2 4 1010.8 1010.8 0.0
03/08:30am 13.4 10.2 3.2 50 4.5 WNW 9 17 5 9 1010.6 1010.6 0.0
03/08:00am 12.8 8.4 2.6 50 4.5 NW 15 24 8 13 1010.1 1010.1 0.0
03/07:30am 12.1 8.5 2.8 53 4.1 NW 11 19 6 10 1009.7 1009.7 0.0
03/07:00am 10.6 7.3 2.7 58 3.4 NW 9 17 5 9 1009.2 1009.2 0.0
03/06:30am 9.9 6.2 2.5 60 3.1 NNW 11 20 6 11 1008.8 1008.8 0.0
03/06:00am 9.7 5.3 2.8 62 3.0 NNW 15 20 8 11 1008.5 1008.5 0.0
03/05:30am 9.7 5.7 2.6 61 3.0 NNW 13 19 7 10 1008.6 1008.6 0.0
03/05:00am 10.9 6.2 3.0 58 3.4 N 17 24 9 13 1008.2 1008.2 0.0
03/04:30am 10.5 5.7 2.6 58 3.4 N 17 24 9 13 1008.3 1008.3 0.0
03/04:00am 11.0 5.8 2.6 56 3.6 N 19 28 10 15 1008.6 1008.6 0.0
03/03:30am 10.2 6.8 1.8 56 3.5 NNW 9 15 5 8 1008.9 1008.9 0.0
03/03:00am 11.2 6.3 1.7 52 4.0 N 17 26 9 14 1009.1 1009.1 0.0
03/02:30am 10.9 5.6 1.7 53 3.9 N 19 32 10 17 1009.4 1009.4 0.0
03/02:00am 9.8 6.0 1.7 57 3.4 NNW 11 17 6 9 1010.2 1010.2 0.0
03/01:30am 7.9 4.9 2.2 67 2.4 N 7 13 4 7 1010.7 1010.7 0.0
03/01:00am 6.2 3.9 0.7 68 2.2 NNE 2 9 1 5 1011.6 1011.6 0.0
03/12:30am 7.5 2.8 0.9 63 2.6 NNE 15 17 8 9 1012.1 1012.1 0.0
03/12:00am 9.6 4.9 1.0 55 3.5 NNE 15 20 8 11 1012.4 1012.4 0.0
 
Date/Time
EST
Temp
°C
App
Temp
°C
Dew
Point
Rel
Hum
%
Delta-T
°C
Wind Press
QNH
hPa
Press
MSL
hPa
Rain
since 9 am
mm
Dir
 
Spd
km/h
Gust
km/h
Spd
kts
Gust
kts
02/11:30pm 10.4 6.5 1.2 53 3.8 NNW 11 17 6 9 1012.4 1012.4 0.0
02/11:00pm 10.9 6.7 1.4 52 4.0 NNW 13 24 7 13 1012.5 1012.5 0.0
02/10:30pm 11.4 6.4 1.6 51 4.1 NNW 17 28 9 15 1012.2 1012.2 0.0
02/10:00pm 11.8 6.9 1.7 50 4.3 NNW 17 24 9 13 1012.2 1012.2 0.0
02/09:30pm 11.5 7.3 1.7 51 4.2 NNW 13 20 7 11 1012.3 1012.3 0.0
02/09:00pm 12.4 8.6 1.7 48 4.6 NW 11 22 6 12 1012.1 1012.1 0.0
02/08:30pm 12.9 8.6 3.0 51 4.4 NW 15 22 8 12 1011.5 1011.5 0.0
02/08:00pm 12.6 8.8 4.1 56 3.8 N 13 19 7 10 1011.2 1011.2 0.0
02/07:30pm 12.6 10.5 6.0 64 3.1 WNW 6 11 3 6 1011.0 1011.0 0.0
02/07:00pm 13.0 10.9 6.6 65 3.1 NNW 7 13 4 7 1010.6 1010.6 0.0
02/06:30pm 14.4 11.4 7.7 64 3.3 NNW 13 19 7 10 1010.2 1010.2 0.0
02/06:00pm 15.3 12.7 7.8 61 3.7 NW 11 20 6 11 1009.6 1009.6 0.0
02/05:30pm 15.8 12.6 8.3 61 3.8 NW 15 26 8 14 1008.7 1008.7 0.0
02/05:00pm 16.5 12.6 8.7 60 4.0 NNW 19 30 10 16 1008.5 1008.5 0.0
02/04:30pm 17.6 14.4 8.5 55 4.7 NNW 15 24 8 13 1008.6 1008.6 0.0
02/04:00pm 18.3 15.6 9.1 55 4.8 NNW 13 19 7 10 1008.0 1008.0 0.0
02/03:30pm 18.9 15.5 9.1 53 5.1 NW 17 26 9 14 1007.6 1007.6 0.0
02/03:00pm 19.1 14.4 9.3 53 5.2 WNW 24 37 13 20 1008.0 1008.0 0.0
02/02:30pm 18.3 14.2 8.8 54 4.9 WNW 20 37 11 20 1007.4 1007.4 0.0
02/02:00pm 19.5 14.4 9.1 51 5.5 NW 26 44 14 24 1006.5 1006.5 0.0
02/01:30pm 20.0 16.1 9.3 50 5.7 NW 20 33 11 18 1006.2 1006.2 0.0
02/01:20pm 19.3 13.7 8.9 51 5.4 NW 28 46 15 25 1006.3 1006.3 0.0
02/01:00pm 20.2 15.0 8.8 48 6.0 NW 26 48 14 26 1007.0 1007.0 0.0
02/12:30pm 20.6 17.1 10.1 51 5.7 NW 19 41 10 22 1007.4 1007.4 0.0
02/12:00pm 20.2 15.2 9.5 50 5.7 NW 26 41 14 22 1007.8 1007.8 0.0
02/11:30am 20.5 17.8 10.3 52 5.5 NW 15 28 8 15 1008.2 1008.2 0.0
02/11:00am 19.7 17.5 12.0 61 4.3 N 15 28 8 15 1008.9 1008.9 0.0
02/10:30am 18.8 16.8 11.4 62 4.0 NNW 13 24 7 13 1009.6 1009.6 0.0
02/10:00am 17.7 14.6 11.7 68 3.3 N 19 30 10 16 1009.8 1009.8 0.0
02/09:30am 16.6 14.2 12.6 77 2.2 NNW 17 28 9 15 1010.0 1010.0 0.0
02/09:00am 15.7 16.0 13.5 87 1.2 SSW 4 9 2 5 1010.3 1010.3 2.2
02/08:30am 14.1 11.9 12.1 88 1.1 N 15 22 8 12 1010.2 1010.2 2.2
02/08:00am 13.2 11.5 12.4 95 0.4 NNW 13 22 7 12 1011.0 1011.0 2.2
02/07:30am 12.9 10.9 12.6 98 0.2 N 15 26 8 14 1011.2 1011.2 2.0
02/07:00am 13.0 12.2 12.8 99 0.1 NNW 9 17 5 9 1011.9 1011.9 1.8
02/06:30am 12.3 10.9 12.3 100 0.0 N 11 17 6 9 1012.1 1012.1 1.4
02/06:00am 11.9 12.1 11.9 100 0.0 N 2 9 1 5 1012.9 1012.9 0.6
02/05:30am 12.3 10.9 12.1 99 0.1 N 11 15 6 8 1012.8 1012.8 0.4
02/05:00am 11.8 10.7 11.8 100 0.0 NNW 9 19 5 10 1013.4 1013.4 0.2
02/04:30am 10.4 9.2 10.4 100 0.0 NNW 7 13 4 7 1013.0 1013.0 0.2
02/04:00am 10.5 9.6 10.5 100 0.0 NNW 6 11 3 6 1013.5 1013.5 0.2
02/03:30am 10.6 9.7 10.6 100 0.0 WNW 6 11 3 6 1014.2 1014.2 0.0
02/03:00am 10.5 10.3 10.5 100 0.0 WSW 2 7 1 4 1014.8 1014.8 0.0
02/02:30am 10.8 11.1 10.8 100 0.0 CALM 0 0 0 0 1015.5 1015.5 0.0
02/02:00am 11.1 10.1 10.9 99 0.1 NW 7 13 4 7 1015.5 1015.5 0.0
02/01:30am 11.1 9.7 10.8 98 0.2 NNE 9 11 5 6 1016.0 1016.0 0.0
02/01:00am 11.1 10.9 10.5 96 0.3 NW 2 7 1 4 1016.4 1016.4 0.0
02/12:30am 11.6 11.0 10.3 92 0.7 NW 4 6 2 3 1016.2 1016.2 0.0
02/12:00am 12.0 11.1 10.6 91 0.7 NW 6 9 3 5 1016.6 1016.6 0.0
 
Date/Time
EST
Temp
°C
App
Temp
°C
Dew
Point
Rel
Hum
%
Delta-T
°C
Wind Press
QNH
hPa
Press
MSL
hPa
Rain
since 9 am
mm
Dir
 
Spd
km/h
Gust
km/h
Spd
kts
Gust
kts
01/11:30pm 12.4 11.8 10.3 87 1.1 SSE 4 9 2 5 1016.4 1016.4 0.0
01/11:00pm 12.6 11.5 10.5 87 1.1 SE 7 11 4 6 1016.8 1016.8 0.0
01/10:30pm 12.5 10.7 10.7 89 0.9 SSE 11 17 6 9 1016.9 1016.9 0.0
01/10:00pm 12.6 10.4 10.7 88 1.0 SSE 13 17 7 9 1017.1 1017.1 0.0
01/09:30pm 12.8 10.5 10.5 86 1.2 SSE 13 17 7 9 1017.1 1017.1 0.0
01/09:00pm 13.0 10.8 10.9 87 1.1 S 13 19 7 10 1016.8 1016.8 0.0
01/08:30pm 13.0 10.1 10.9 87 1.1 SSE 17 20 9 11 1017.2 1017.2 0.0
01/08:00pm 13.1 11.3 11.0 87 1.1 S 11 17 6 9 1016.8 1016.8 0.0
01/07:30pm 13.1 9.8 11.5 90 0.8 S 20 30 11 16 1016.0 1016.0 0.0
01/07:00pm 13.3 10.1 11.9 91 0.7 S 20 32 11 17 1015.2 1015.2 0.0
01/06:30pm 13.5 8.8 12.1 91 0.8 S 28 39 15 21 1014.4 1014.4 0.0
01/06:26pm 13.5 8.8 12.1 91 0.8 SSE 28 46 15 25 1014.4 1014.4 0.0
01/06:00pm 14.0 8.5 12.4 90 0.9 SSE 33 46 18 25 1014.0 1014.0 0.0
01/05:39pm 15.0 12.5 12.3 84 1.5 SSE 17 41 9 22 1013.3 1013.3 0.0
01/05:30pm 16.7 16.9 11.8 73 2.7 W 2 6 1 3 1012.7 1012.7 0.0
01/05:00pm 17.9 17.5 11.2 65 3.6 WSW 4 7 2 4 1011.7 1011.7 0.0
01/04:30pm 19.5 18.5 8.8 50 5.6 NW 4 6 2 3 1010.8 1010.8 0.0
01/04:00pm 20.8 18.7 8.4 45 6.5 N 9 15 5 8 1010.5 1010.5 0.0
01/03:30pm 21.0 18.1 8.3 44 6.6 N 13 17 7 9 1009.9 1009.9 0.0
01/03:00pm 20.7 17.2 7.3 42 6.9 NNW 15 26 8 14 1009.9 1009.9 0.0
01/02:30pm 20.6 17.1 7.2 42 6.8 NNW 15 24 8 13 1010.1 1010.1 0.0
01/02:00pm 21.6 17.8 5.9 36 7.9 NNW 15 22 8 12 1009.7 1009.7 0.0
01/01:30pm 21.8 18.5 6.5 37 7.8 NNW 13 24 7 13 1009.6 1009.6 0.0
01/01:00pm 21.1 17.0 8.7 45 6.5 NNE 20 32 11 17 1009.7 1009.7 0.0
01/12:30pm 19.8 14.8 7.9 46 6.1 NNE 24 33 13 18 1010.3 1010.3 0.0
01/12:00pm 19.4 13.6 7.8 47 6.0 NNE 28 35 15 19 1010.6 1010.6 0.0
01/11:30am 18.5 12.6 7.3 48 5.7 NNE 28 35 15 19 1011.3 1011.3 0.0
01/11:00am 18.7 13.1 7.2 47 5.8 N 26 35 14 19 1011.9 1011.9 0.0
01/10:30am 18.3 13.3 8.0 51 5.3 N 24 32 13 17 1012.7 1012.7 0.0
01/10:00am 16.7 13.0 7.9 56 4.4 N 17 24 9 13 1013.4 1013.4 0.0
01/09:30am 15.0 10.7 7.1 59 3.9 NNW 19 28 10 15 1013.5 1013.5 0.0
01/09:00am 15.1 10.2 6.7 57 4.1 NW 22 37 12 20 1013.1 1013.1 0.0
01/08:30am 14.7 11.5 6.8 59 3.8 N 13 24 7 13 1013.3 1013.3 0.0
01/08:00am 15.0 11.3 6.3 56 4.2 NNW 15 24 8 13 1013.5 1013.5 0.0
01/07:30am 15.1 11.0 6.1 55 4.3 NNW 17 30 9 16 1013.6 1013.6 0.0
01/07:00am 15.6 11.5 6.3 54 4.5 NNW 17 32 9 17 1014.1 1014.1 0.0
01/06:30am 15.4 11.8 6.9 57 4.2 NW 15 22 8 12 1013.2 1013.2 0.0
01/06:00am 15.5 10.6 7.0 57 4.2 NW 22 37 12 20 1012.8 1012.8 0.0
01/05:30am 15.6 9.4 6.3 54 4.5 WNW 28 46 15 25 1012.7 1012.7 0.0
01/05:00am 15.7 9.0 5.6 51 4.8 NW 30 59 16 32 1012.1 1012.1 0.0
01/04:54am 15.7 9.4 5.6 51 4.8 NW 28 59 15 32 1012.0 1012.0 0.0
01/04:30am 14.2 10.1 6.3 59 3.8 N 17 24 9 13 1012.3 1012.3 0.0
01/04:00am 10.4 7.6 7.1 80 1.6 N 11 13 6 7 1013.1 1013.1 0.0
01/03:30am 9.4 7.0 6.8 84 1.2 N 9 11 5 6 1013.6 1013.6 0.0
01/03:00am 9.9 7.8 6.6 80 1.5 NE 7 13 4 7 1014.2 1014.2 0.0
01/02:30am 10.9 7.6 6.6 75 2.0 NNW 13 20 7 11 1015.3 1015.3 0.0
01/02:00am 10.6 7.2 7.8 83 1.3 N 15 20 8 11 1015.8 1015.8 0.0
01/01:30am 7.1 4.6 6.7 97 0.2 NNE 9 13 5 7 1016.5 1016.5 0.0
01/01:00am 6.7 4.2 6.6 99 0.0 NNW 9 17 5 9 1016.6 1016.6 0.0
01/12:30am 7.7 4.6 7.1 96 0.3 NNW 13 19 7 10 1016.8 1016.8 0.0
01/12:00am 8.2 5.6 7.9 98 0.1 N 11 15 6 8 1017.2 1017.2 0.0
 
Date/Time
EST
Temp
°C
App
Temp
°C
Dew
Point
Rel
Hum
%
Delta-T
°C
Wind Press
QNH
hPa
Press
MSL
hPa
Rain
since 9 am
mm
Dir
 
Spd
km/h
Gust
km/h
Spd
kts
Gust
kts
31/11:30pm 9.1 6.4 8.8 98 0.1 NNW 13 20 7 11 1018.3 1018.3 0.0
31/11:00pm 9.4 6.4 9.4 100 0.0 N 15 20 8 11 1018.7 1018.7 0.0
31/10:30pm 8.9 6.2 8.9 100 0.0 NNW 13 20 7 11 1019.1 1019.1 0.0
31/10:00pm 9.3 6.7 9.3 100 0.0 NNW 13 17 7 9 1019.2 1019.2 0.0
31/09:30pm 8.9 6.2 8.9 100 0.0 N 13 17 7 9 1019.8 1019.8 0.0
31/09:00pm 7.1 4.7 7.1 100 0.0 NNW 9 13 5 7 1019.7 1019.7 0.0
31/08:30pm 7.4 5.5 7.4 100 0.0 WNW 7 9 4 5 1019.9 1019.9 0.0
31/08:00pm 7.6 5.6 7.2 97 0.2 NW 7 9 4 5 1019.6 1019.6 0.0
31/07:30pm 9.1 8.7 8.3 95 0.4 CALM 0 4 0 2 1019.6 1019.6 0.0
31/07:00pm 10.4 9.4 8.8 90 0.8 NNW 4 7 2 4 1019.9 1019.9 0.0
31/06:30pm 11.8 10.4 9.0 83 1.4 NNW 6 9 3 5 1020.0 1020.0 0.0
31/06:00pm 12.6 10.7 9.2 80 1.7 N 9 11 5 6 1019.8 1019.8 0.0
31/05:30pm 12.7 10.8 9.0 78 1.9 N 9 13 5 7 1019.8 1019.8 0.0
31/05:00pm 13.4 10.3 8.9 74 2.3 NE 15 20 8 11 1019.4 1019.4 0.0
31/04:30pm 14.1 10.9 8.3 68 2.9 NE 15 20 8 11 1019.4 1019.4 0.0
31/04:00pm 14.5 11.0 8.9 69 2.8 NE 17 20 9 11 1019.2 1019.2 0.0
31/03:30pm 14.7 11.5 8.6 67 3.1 NE 15 19 8 10 1019.3 1019.3 0.0
31/03:00pm 14.9 11.9 7.7 62 3.6 ENE 13 20 7 11 1019.5 1019.5 0.0
31/02:30pm 15.0 12.1 8.0 63 3.5 ENE 13 17 7 9 1019.3 1019.3 0.0
31/02:00pm 15.0 12.1 8.0 63 3.5 E 13 15 7 8 1019.4 1019.4 0.0
31/01:30pm 15.0 12.1 8.3 64 3.4 ESE 13 19 7 10 1019.7 1019.7 0.0
31/01:00pm 14.6 11.4 8.3 66 3.2 ESE 15 19 8 10 1019.9 1019.9 0.0

Other Formats:

Comma delimited format used in spreadsheet applications
http://www.bom.gov.au/fwo/IDN60801/IDN60801.95937.axf

JavaScript Object Notation format (JSON) in row-major order
http://www.bom.gov.au/fwo/IDN60801/IDN60801.95937.json